createdAt,value
2022-08-16T00:03:13.630Z,14.27
2022-08-16T00:06:21.608Z,14.01
2022-08-16T00:09:29.051Z,14.05
2022-08-16T00:12:35.640Z,14.08
2022-08-16T00:15:51.498Z,13.94
2022-08-16T00:19:01.173Z,14.11
2022-08-16T00:22:13.331Z,14.06
2022-08-16T00:26:33.428Z,14.26
2022-08-16T00:28:54.836Z,14.15
2022-08-16T00:32:05.563Z,14.79
2022-08-16T00:35:16.141Z,14.94
2022-08-16T00:38:40.985Z,14.83
2022-08-16T00:41:51.176Z,14.62
2022-08-16T00:45:06.672Z,14.29
2022-08-16T00:48:31.181Z,14.35
2022-08-16T00:51:38.694Z,14.82
2022-08-16T00:54:46.227Z,13.81
2022-08-16T00:57:59.619Z,13.56
2022-08-16T01:01:08.928Z,13.70
2022-08-16T01:04:29.125Z,13.75
2022-08-16T01:07:51.089Z,14.35
2022-08-16T01:10:59.967Z,14.49
2022-08-16T01:14:13.100Z,14.24
2022-08-16T01:17:21.139Z,13.98
2022-08-16T01:20:36.555Z,14.53
2022-08-16T01:24:02.456Z,14.72
2022-08-16T01:27:15.224Z,14.72
2022-08-16T01:30:27.655Z,14.70
2022-08-16T01:33:35.785Z,14.65
2022-08-16T01:36:43.390Z,14.71
2022-08-16T01:39:51.752Z,14.71
2022-08-16T01:42:58.595Z,14.57
2022-08-16T01:46:37.748Z,14.78
2022-08-16T01:50:40.703Z,14.15
2022-08-16T01:53:07.051Z,14.51
2022-08-16T01:56:23.516Z,14.53
2022-08-16T01:59:32.375Z,14.18
2022-08-16T02:02:42.474Z,13.96
2022-08-16T02:05:52.033Z,13.86
2022-08-16T02:08:59.508Z,13.65
2022-08-16T02:12:39.509Z,13.74
2022-08-16T02:15:42.487Z,13.67
2022-08-16T02:18:50.605Z,13.54
2022-08-16T02:22:09.151Z,13.66
2022-08-16T02:25:52.026Z,14.08
2022-08-16T02:28:55.288Z,14.51
2022-08-16T02:32:49.714Z,14.53
2022-08-16T02:35:29.406Z,14.33
2022-08-16T02:38:35.849Z,13.83
2022-08-16T02:41:46.342Z,13.64
2022-08-16T02:45:01.416Z,13.03
2022-08-16T02:48:30.068Z,13.17
2022-08-16T02:51:35.739Z,12.82
2022-08-16T02:54:41.827Z,13.31
2022-08-16T02:57:54.119Z,13.46
2022-08-16T03:01:02.564Z,13.76
2022-08-16T03:04:49.708Z,13.90
2022-08-16T03:07:37.618Z,13.89
2022-08-16T03:10:44.700Z,13.82
2022-08-16T03:13:56.673Z,13.95
2022-08-16T03:17:05.278Z,14.16
2022-08-16T03:20:14.496Z,14.21
2022-08-16T03:23:24.582Z,14.14
2022-08-16T03:26:32.125Z,14.16
2022-08-16T03:29:39.396Z,13.75
2022-08-16T03:33:02.511Z,13.64
2022-08-16T03:36:29.742Z,13.78
2022-08-16T03:39:36.103Z,13.78
2022-08-16T03:42:49.423Z,13.18
2022-08-16T03:46:48.427Z,12.86
2022-08-16T03:49:43.855Z,13.62
2022-08-16T03:52:51.166Z,13.46
2022-08-16T03:56:07.616Z,13.25
2022-08-16T03:59:23.988Z,13.40
2022-08-16T04:02:31.671Z,13.66
2022-08-16T04:05:44.202Z,13.63
2022-08-16T04:08:50.895Z,13.94
2022-08-16T04:11:57.338Z,14.42
2022-08-16T04:15:07.832Z,14.47
2022-08-16T04:18:14.324Z,14.57
2022-08-16T04:21:29.494Z,14.46
2022-08-16T04:24:35.980Z,13.80
2022-08-16T04:27:54.401Z,13.91
2022-08-16T04:31:02.359Z,14.15
2022-08-16T04:34:14.608Z,13.60
2022-08-16T04:37:22.842Z,13.98
2022-08-16T04:40:29.421Z,14.07
2022-08-16T04:43:38.612Z,14.01
2022-08-16T04:47:01.438Z,14.18
2022-08-16T04:50:12.369Z,14.46
2022-08-16T04:53:22.266Z,14.84
2022-08-16T04:56:32.026Z,15.15
2022-08-16T04:59:40.026Z,15.64
2022-08-16T05:02:51.105Z,15.56
2022-08-16T05:06:04.934Z,16.00
2022-08-16T05:09:12.949Z,16.13
2022-08-16T05:12:22.260Z,16.24
2022-08-16T05:15:37.881Z,16.08
2022-08-16T05:18:44.286Z,16.52
2022-08-16T05:21:51.535Z,16.56
2022-08-16T05:24:59.231Z,16.13
2022-08-16T05:28:05.872Z,16.52
2022-08-16T05:31:13.203Z,16.33
2022-08-16T05:34:22.437Z,16.56
2022-08-16T05:37:29.015Z,16.96
2022-08-16T05:40:59.671Z,17.08
2022-08-16T05:44:24.001Z,17.54
2022-08-16T05:47:31.054Z,17.62
2022-08-16T05:50:38.237Z,17.40
2022-08-16T05:53:48.092Z,17.93
2022-08-16T05:56:58.314Z,18.15
2022-08-16T06:00:10.362Z,17.78
2022-08-16T06:03:17.061Z,17.34
2022-08-16T06:06:28.182Z,18.37
2022-08-16T06:09:42.962Z,18.59
2022-08-16T06:12:55.651Z,18.82
2022-08-16T06:16:01.890Z,18.91
2022-08-16T06:19:08.190Z,19.05
2022-08-16T06:22:37.292Z,19.25
2022-08-16T06:25:41.727Z,19.72
2022-08-16T06:28:50.214Z,19.73
2022-08-16T06:31:59.221Z,20.56
2022-08-16T06:35:06.922Z,20.08
2022-08-16T06:38:32.934Z,20.50
2022-08-16T06:41:40.272Z,20.87
2022-08-16T06:44:49.152Z,20.86
2022-08-16T06:47:56.615Z,21.12
2022-08-16T06:51:04.711Z,20.81
2022-08-16T06:54:14.117Z,21.07
2022-08-16T06:57:20.641Z,21.50
2022-08-16T07:00:28.887Z,21.88
2022-08-16T07:03:54.506Z,21.80
2022-08-16T07:07:03.030Z,22.07
2022-08-16T07:10:10.322Z,22.43
2022-08-16T07:13:26.722Z,22.29
2022-08-16T07:16:45.289Z,23.25
2022-08-16T07:20:29.532Z,23.58
2022-08-16T07:23:19.047Z,24.20
2022-08-16T07:26:26.858Z,24.44
2022-08-16T07:29:33.641Z,24.08
2022-08-16T07:32:41.724Z,23.79
2022-08-16T07:35:59.696Z,24.24
2022-08-16T07:39:05.944Z,24.30
2022-08-16T07:42:28.288Z,24.67
2022-08-16T07:45:42.801Z,24.63
2022-08-16T07:48:51.157Z,24.50
2022-08-16T07:52:01.441Z,25.25
2022-08-16T07:55:25.316Z,25.41
2022-08-16T07:58:36.192Z,25.13
2022-08-16T08:01:42.673Z,25.41
2022-08-16T08:04:50.478Z,24.97
2022-08-16T08:07:57.736Z,25.81
2022-08-16T08:11:09.371Z,25.88
2022-08-16T08:14:29.746Z,25.62
2022-08-16T08:17:42.977Z,26.02
2022-08-16T08:20:59.336Z,26.09
2022-08-16T08:24:09.226Z,26.28
2022-08-16T08:27:22.611Z,26.26
2022-08-16T08:30:49.853Z,26.47
2022-08-16T08:33:56.872Z,26.53
2022-08-16T08:37:05.980Z,27.37
2022-08-16T08:40:14.278Z,27.29
2022-08-16T08:43:25.124Z,27.26
2022-08-16T08:46:35.713Z,27.39
2022-08-16T08:49:50.272Z,27.25
2022-08-16T08:53:04.087Z,27.27
2022-08-16T08:56:22.829Z,27.36
2022-08-16T08:59:32.135Z,27.85
2022-08-16T09:02:38.516Z,26.87
2022-08-16T09:05:49.601Z,27.73
2022-08-16T09:08:59.319Z,27.91
2022-08-16T09:12:07.422Z,28.07
2022-08-16T09:15:16.170Z,28.39
2022-08-16T09:18:35.592Z,28.36
2022-08-16T09:21:42.931Z,27.89
2022-08-16T09:24:54.152Z,28.22
2022-08-16T09:29:13.877Z,27.74
2022-08-16T09:31:43.455Z,28.30
2022-08-16T09:34:51.493Z,28.33
2022-08-16T09:38:00.433Z,28.36
2022-08-16T09:41:14.530Z,28.01
2022-08-16T09:45:12.406Z,28.74
2022-08-16T09:47:57.094Z,28.67
2022-08-16T09:51:04.438Z,29.61
2022-08-16T09:54:17.091Z,28.87
2022-08-16T09:57:34.677Z,29.01
2022-08-16T10:00:44.145Z,28.89
2022-08-16T10:04:02.555Z,29.24
2022-08-16T10:07:15.362Z,29.72
2022-08-16T10:10:30.553Z,29.49
2022-08-16T10:13:39.682Z,29.15
2022-08-16T10:16:48.875Z,29.61
2022-08-16T10:19:56.110Z,30.39
2022-08-16T10:23:07.119Z,29.62
2022-08-16T10:27:19.389Z,29.91
2022-08-16T10:30:01.519Z,29.31
2022-08-16T10:33:08.564Z,29.18
2022-08-16T10:36:39.003Z,29.31
2022-08-16T10:39:43.604Z,29.48
2022-08-16T10:42:50.567Z,29.99
2022-08-16T10:46:00.413Z,29.31
2022-08-16T10:49:07.103Z,28.82
2022-08-16T10:52:18.163Z,29.73
2022-08-16T10:55:44.462Z,29.41
2022-08-16T10:58:52.770Z,29.46
2022-08-16T11:05:28.110Z,29.15
2022-08-16T11:08:35.609Z,29.73
2022-08-16T11:15:12.137Z,29.73
2022-08-16T11:18:48.743Z,29.82
2022-08-16T11:26:07.791Z,30.02
2022-08-16T11:32:10.301Z,30.35
2022-08-16T11:35:43.439Z,29.60
2022-08-16T11:38:55.818Z,29.68
2022-08-16T11:42:04.065Z,29.77
2022-08-16T11:45:33.579Z,30.18
2022-08-16T11:48:41.369Z,30.33
2022-08-16T11:51:50.187Z,30.72
2022-08-16T11:54:57.194Z,30.14
2022-08-16T11:58:07.783Z,30.15
2022-08-16T12:01:15.656Z,30.53
2022-08-16T12:04:22.414Z,30.49
2022-08-16T12:07:33.206Z,30.30
2022-08-16T12:10:43.261Z,30.23
2022-08-16T12:13:49.686Z,30.49
2022-08-16T12:16:59.693Z,30.01
2022-08-16T12:20:12.795Z,30.56
2022-08-16T12:23:22.475Z,30.49
2022-08-16T12:26:28.887Z,30.78
2022-08-16T12:29:35.525Z,30.33
2022-08-16T12:32:43.104Z,31.73
2022-08-16T12:35:50.734Z,30.48
2022-08-16T12:38:59.996Z,30.77
2022-08-16T12:42:09.587Z,30.74
2022-08-16T12:45:17.346Z,30.74
2022-08-16T12:48:46.886Z,31.26
2022-08-16T12:51:58.657Z,31.20
2022-08-16T12:55:11.535Z,30.16
2022-08-16T12:58:47.497Z,30.07
2022-08-16T13:01:47.899Z,29.95
2022-08-16T13:04:57.007Z,29.89
2022-08-16T13:08:04.430Z,30.15
2022-08-16T13:11:12.572Z,29.73
2022-08-16T13:14:31.311Z,29.06
2022-08-16T13:17:43.277Z,29.04
2022-08-16T13:20:50.171Z,28.45
2022-08-16T13:23:57.359Z,28.11
2022-08-16T13:27:06.618Z,27.96
2022-08-16T13:30:35.628Z,27.96
2022-08-16T13:33:41.234Z,27.81
2022-08-16T13:36:49.489Z,28.02
2022-08-16T13:39:56.272Z,28.14
2022-08-16T13:43:04.257Z,28.17
2022-08-16T13:46:10.388Z,28.00
2022-08-16T13:49:17.618Z,28.09
2022-08-16T13:52:32.111Z,27.95
2022-08-16T13:55:41.084Z,28.48
2022-08-16T13:58:54.815Z,29.49
2022-08-16T14:02:02.836Z,30.78
2022-08-16T14:05:09.942Z,29.70
2022-08-16T14:08:17.016Z,29.46
2022-08-16T14:11:24.015Z,29.57
2022-08-16T14:14:32.486Z,29.94
2022-08-16T14:18:15.563Z,29.29
2022-08-16T14:21:05.615Z,29.01
2022-08-16T14:24:22.397Z,28.79
2022-08-16T14:27:39.124Z,28.24
2022-08-16T14:30:49.937Z,27.91
2022-08-16T14:33:57.998Z,28.11
2022-08-16T14:37:05.951Z,27.71
2022-08-16T14:40:13.936Z,26.83
2022-08-16T14:43:20.681Z,26.92
2022-08-16T14:46:29.223Z,26.89
2022-08-16T14:49:36.331Z,27.37
2022-08-16T14:52:56.461Z,27.23
2022-08-16T14:56:03.211Z,27.39
2022-08-16T14:59:11.307Z,26.73
2022-08-16T15:02:34.262Z,26.94
2022-08-16T15:05:43.067Z,26.79
2022-08-16T15:08:49.800Z,26.73
2022-08-16T15:11:57.394Z,26.82
2022-08-16T15:15:13.159Z,27.26
2022-08-16T15:18:27.905Z,27.57
2022-08-16T15:21:34.800Z,27.46
2022-08-16T15:24:41.667Z,27.33
2022-08-16T15:27:55.402Z,27.34
2022-08-16T15:31:03.929Z,27.19
2022-08-16T15:34:13.143Z,26.96
2022-08-16T15:37:42.553Z,27.00
2022-08-16T15:40:57.504Z,26.92
2022-08-16T15:44:10.817Z,26.88
2022-08-16T15:47:17.909Z,26.69
2022-08-16T15:50:25.990Z,26.51
2022-08-16T15:53:33.350Z,26.60
2022-08-16T15:56:51.536Z,26.40
2022-08-16T16:00:04.894Z,26.00
2022-08-16T16:03:23.757Z,26.14
2022-08-16T16:06:33.195Z,25.89
2022-08-16T16:09:40.452Z,25.93
2022-08-16T16:12:54.177Z,25.82
2022-08-16T16:16:03.978Z,25.78
2022-08-16T16:19:20.088Z,25.72
2022-08-16T16:22:30.143Z,25.66
2022-08-16T16:25:36.816Z,25.71
2022-08-16T16:29:05.508Z,25.73
2022-08-16T16:32:10.932Z,25.59
2022-08-16T16:35:19.317Z,25.61
2022-08-16T16:38:34.875Z,25.35
2022-08-16T16:41:42.153Z,25.32
2022-08-16T16:44:48.740Z,25.17
2022-08-16T16:47:57.259Z,24.86
2022-08-16T16:51:19.014Z,24.76
2022-08-16T16:54:28.308Z,24.71
2022-08-16T16:57:52.295Z,24.66
2022-08-16T17:00:59.040Z,24.86
2022-08-16T17:04:19.173Z,24.66
2022-08-16T17:07:26.515Z,24.57
2022-08-16T17:10:46.541Z,24.26
2022-08-16T17:13:56.407Z,24.19
2022-08-16T17:17:08.711Z,24.08
2022-08-16T17:20:16.695Z,24.02
2022-08-16T17:23:59.315Z,23.82
2022-08-16T17:26:55.938Z,23.61
2022-08-16T17:30:15.563Z,23.46
2022-08-16T17:33:23.613Z,23.27
2022-08-16T17:36:35.953Z,23.21
2022-08-16T17:40:00.389Z,23.05
2022-08-16T17:43:11.051Z,22.97
2022-08-16T17:46:51.825Z,22.83
2022-08-16T17:49:44.392Z,22.88
2022-08-16T17:52:51.514Z,23.01
2022-08-16T17:55:57.757Z,22.88
2022-08-16T17:59:05.629Z,22.70
2022-08-16T18:02:44.240Z,22.37
2022-08-16T18:05:39.306Z,22.30
2022-08-16T18:08:48.612Z,22.46
2022-08-16T18:11:55.491Z,22.36
2022-08-16T18:15:03.618Z,22.38
2022-08-16T18:18:10.403Z,22.55
2022-08-16T18:21:34.330Z,22.40
2022-08-16T18:24:40.824Z,22.33
2022-08-16T18:27:47.017Z,22.31
2022-08-16T18:31:00.270Z,22.12
2022-08-16T18:34:07.671Z,22.09
2022-08-16T18:37:14.302Z,22.03
2022-08-16T18:40:21.628Z,21.99
2022-08-16T18:44:00.898Z,21.96
2022-08-16T18:46:55.840Z,21.66
2022-08-16T18:50:01.881Z,21.47
2022-08-16T18:53:10.803Z,21.14
2022-08-16T18:56:17.218Z,21.20
2022-08-16T18:59:23.963Z,21.13
2022-08-16T19:02:56.874Z,20.93
2022-08-16T19:06:02.455Z,20.76
2022-08-16T19:09:09.052Z,20.76
2022-08-16T19:12:15.868Z,20.77
2022-08-16T19:15:26.056Z,20.71
2022-08-16T19:18:36.714Z,20.63
2022-08-16T19:21:43.386Z,20.47
2022-08-16T19:24:49.833Z,20.67
2022-08-16T19:27:56.318Z,20.32
2022-08-16T19:31:04.291Z,20.25
2022-08-16T19:34:13.340Z,20.20
2022-08-16T19:37:20.160Z,20.21
2022-08-16T19:40:37.177Z,20.18
2022-08-16T19:43:44.912Z,19.92
2022-08-16T19:46:51.210Z,20.05
2022-08-16T19:49:59.208Z,20.23
2022-08-16T19:53:12.356Z,19.99
2022-08-16T19:56:26.900Z,19.98
2022-08-16T19:59:40.526Z,19.87
2022-08-16T20:02:52.309Z,19.89
2022-08-16T20:06:00.430Z,19.91
2022-08-16T20:09:07.485Z,19.74
2022-08-16T20:12:16.089Z,19.58
2022-08-16T20:15:26.829Z,19.67
2022-08-16T20:18:34.844Z,19.62
2022-08-16T20:21:42.859Z,19.47
2022-08-16T20:24:49.189Z,19.34
2022-08-16T20:27:55.621Z,19.14
2022-08-16T20:31:02.496Z,18.79
2022-08-16T20:34:09.176Z,19.17
2022-08-16T20:37:16.869Z,19.02
2022-08-16T20:40:34.757Z,18.94
2022-08-16T20:43:42.113Z,19.43
2022-08-16T20:46:48.720Z,19.24
2022-08-16T20:49:55.066Z,19.35
2022-08-16T20:53:02.970Z,19.36
2022-08-16T20:56:10.541Z,19.44
2022-08-16T20:59:17.002Z,19.61
2022-08-16T21:02:27.088Z,19.27
2022-08-16T21:05:35.150Z,18.63
2022-08-16T21:08:53.459Z,18.25
2022-08-16T21:12:04.210Z,18.78
2022-08-16T21:15:11.712Z,18.98
2022-08-16T21:18:21.065Z,19.03
2022-08-16T21:21:31.944Z,19.16
2022-08-16T21:24:42.541Z,19.02
2022-08-16T21:28:39.509Z,19.03
2022-08-16T21:31:18.838Z,18.96
2022-08-16T21:34:25.854Z,18.98
2022-08-16T21:37:32.568Z,18.90
2022-08-16T21:40:41.787Z,18.73
2022-08-16T21:43:48.679Z,18.83
2022-08-16T21:46:55.396Z,18.23
2022-08-16T21:50:01.838Z,18.24
2022-08-16T21:53:10.640Z,18.38
2022-08-16T21:56:19.063Z,18.62
2022-08-16T21:59:25.758Z,18.37
2022-08-16T22:02:33.978Z,18.64
2022-08-16T22:05:46.582Z,18.56
2022-08-16T22:09:15.894Z,18.70
2022-08-16T22:12:26.195Z,18.51
2022-08-16T22:15:32.544Z,18.65
2022-08-16T22:18:38.831Z,18.16
2022-08-16T22:21:45.926Z,18.24
2022-08-16T22:24:52.177Z,18.48
2022-08-16T22:28:00.224Z,18.46
2022-08-16T22:31:06.757Z,18.28
2022-08-16T22:34:13.899Z,18.43
2022-08-16T22:37:20.307Z,18.52
2022-08-16T22:40:26.628Z,18.16
2022-08-16T22:43:34.536Z,18.24
2022-08-16T22:46:40.887Z,18.14
2022-08-16T22:49:47.471Z,17.37
2022-08-16T22:52:57.048Z,17.27
2022-08-16T22:56:03.860Z,17.41
2022-08-16T22:59:11.601Z,17.77
2022-08-16T23:02:18.135Z,18.24
2022-08-16T23:05:24.934Z,18.23
2022-08-16T23:08:39.060Z,18.32
2022-08-16T23:11:46.566Z,18.08
2022-08-16T23:14:54.434Z,18.20
2022-08-16T23:18:00.706Z,17.95
2022-08-16T23:21:09.691Z,17.61
2022-08-16T23:24:19.509Z,17.17
2022-08-16T23:27:26.038Z,16.78
2022-08-16T23:30:38.904Z,17.11
2022-08-16T23:33:47.219Z,17.25
2022-08-16T23:36:53.795Z,17.48
2022-08-16T23:40:00.283Z,17.58
2022-08-16T23:43:08.584Z,17.43
2022-08-16T23:46:19.648Z,17.50
2022-08-16T23:49:57.381Z,17.55
2022-08-16T23:52:59.685Z,17.59
2022-08-16T23:56:08.353Z,17.72
2022-08-16T23:59:14.677Z,17.60
